Terminal Aerodrome Forecast
Issued by NWS Duluth, MN

Home | Current Version | Previous Version | Text Only | Print | Product List | Glossary On
Versions: 1 2 3 4 5 6 7 8 9 10 11 12 13 14 15 16 17 18
000
FTUS43 KDLH 041121
TAFDLH
TAF
KDLH 041121Z 0412/0512 VRB04KT 6SM FU SKC
     FM041700 09009KT P6SM FEW050
     FM050400 04006KT P6SM FEW030
     FM050700 VRB03KT 6SM BR FEW012
      TEMPO 0509/0512 3SM BR=

USA.gov is the U.S. government's official web portal to all federal, state and local government web resources and services.